Leoville, Canada
Current Conditions -  °F | °C
As of 11:17 PM on Tuesday 21 Oct 2014 (Local Time) from CYQW Reporting Station
Overcast Overcast  
Wind Chill: 44°   Ceiling: 8500
Heat Index: 48°   Visibility: 9mi
Dew Point: 46°   Wind: 10mph
Humidity: 93%   Direction: 320°NW
Pressure: 29.67"   Gusts: NA
Location:  53.63°N, 107.55°W
Report Text: CYQW 220517Z AUTO 32009KT 9SM OVC085 09/08 A2967 RMK SLP056 DENSITY ALT 1800FT
Loading
Personal Weather Stations






























Interactive Weather Map
Tropical Storm Tracking
New forecast layout! Learn more

10-Day Weather Forecast

Advertisements
Track Severe Weather on mobile